createdAt,value
2022-11-20T00:00:54.919Z,88.30
2022-11-20T00:03:21.699Z,88.30
2022-11-20T00:05:48.384Z,88.40
2022-11-20T00:08:15.228Z,88.20
2022-11-20T00:10:42.217Z,88.10
2022-11-20T00:13:08.940Z,88.10
2022-11-20T00:15:35.699Z,88.10
2022-11-20T00:18:02.347Z,87.80
2022-11-20T00:20:28.975Z,87.80
2022-11-20T00:22:55.597Z,87.70
2022-11-20T00:25:22.228Z,87.60
2022-11-20T00:27:48.877Z,87.50
2022-11-20T00:30:15.580Z,87.50
2022-11-20T00:32:42.317Z,87.50
2022-11-20T00:35:09.076Z,87.70
2022-11-20T00:37:35.781Z,87.80
2022-11-20T00:40:02.489Z,87.60
2022-11-20T00:42:29.163Z,87.40
2022-11-20T00:44:55.815Z,87.90
2022-11-20T00:47:22.467Z,87.60
2022-11-20T00:49:49.086Z,87.50
2022-11-20T00:52:15.794Z,87.20
2022-11-20T00:54:42.461Z,86.90
2022-11-20T00:57:09.145Z,86.60
2022-11-20T00:59:35.749Z,86.60
2022-11-20T01:02:02.589Z,86.60
2022-11-20T01:04:29.308Z,86.60
2022-11-20T01:06:55.945Z,86.60
2022-11-20T01:09:22.779Z,87.40
2022-11-20T01:11:49.890Z,87.70
2022-11-20T01:14:19.047Z,87.60
2022-11-20T01:16:49.452Z,87.20
2022-11-20T01:19:25.074Z,87.10
2022-11-20T01:21:55.011Z,86.90
2022-11-20T01:24:22.772Z,86.80
2022-11-20T01:26:51.288Z,86.80
2022-11-20T01:29:24.245Z,86.80
2022-11-20T01:31:52.553Z,86.90
2022-11-20T01:34:20.573Z,86.90
2022-11-20T01:36:47.973Z,87.00
2022-11-20T01:39:23.433Z,87.00
2022-11-20T01:42:11.436Z,87.20
2022-11-20T01:44:56.441Z,87.10
2022-11-20T01:47:33.031Z,87.20
2022-11-20T01:50:20.780Z,87.20
2022-11-20T01:52:54.261Z,87.10
2022-11-20T01:55:25.275Z,87.20
2022-11-20T01:57:52.520Z,87.20
2022-11-20T02:00:21.233Z,87.20
2022-11-20T02:02:58.500Z,87.50
2022-11-20T02:05:39.877Z,87.60
2022-11-20T02:08:07.705Z,87.80
2022-11-20T02:10:34.968Z,87.60
2022-11-20T02:13:20.625Z,87.50
2022-11-20T02:15:48.375Z,87.60
2022-11-20T02:18:18.217Z,87.60
2022-11-20T02:20:46.833Z,87.70
2022-11-20T02:23:17.583Z,87.60
2022-11-20T02:25:46.756Z,87.80
2022-11-20T02:28:13.685Z,87.70
2022-11-20T02:30:40.345Z,87.60
2022-11-20T02:33:07.023Z,87.70
2022-11-20T02:35:33.679Z,87.80
2022-11-20T02:38:03.477Z,87.70
2022-11-20T02:40:30.265Z,87.80
2022-11-20T02:42:57.631Z,87.90
2022-11-20T02:45:25.237Z,87.90
2022-11-20T02:47:52.521Z,87.90
2022-11-20T02:50:19.469Z,87.80
2022-11-20T02:52:46.484Z,87.80
2022-11-20T02:55:13.266Z,87.90
2022-11-20T02:57:39.880Z,87.80
2022-11-20T03:00:07.805Z,88.00
2022-11-20T03:02:34.649Z,87.90
2022-11-20T03:05:01.588Z,87.80
2022-11-20T03:07:28.361Z,88.10
2022-11-20T03:09:55.139Z,88.10
2022-11-20T03:12:21.878Z,88.10
2022-11-20T03:14:52.822Z,87.90
2022-11-20T03:17:20.528Z,87.80
2022-11-20T03:19:47.725Z,87.90
2022-11-20T03:22:14.668Z,88.00
2022-11-20T03:24:41.359Z,87.70
2022-11-20T03:27:08.157Z,87.80
2022-11-20T03:29:36.336Z,87.80
2022-11-20T03:32:03.004Z,87.90
2022-11-20T03:34:29.668Z,87.90
2022-11-20T03:36:56.487Z,88.20
2022-11-20T03:39:23.500Z,88.20
2022-11-20T03:41:50.461Z,87.90
2022-11-20T03:44:17.141Z,87.90
2022-11-20T03:46:43.804Z,88.10
2022-11-20T03:49:10.556Z,88.10
2022-11-20T03:51:37.657Z,88.20
2022-11-20T03:54:09.268Z,88.10
2022-11-20T03:56:37.609Z,88.00
2022-11-20T03:59:05.011Z,87.90
2022-11-20T04:01:37.790Z,88.10
2022-11-20T04:04:04.711Z,88.20
2022-11-20T04:06:35.744Z,88.20
2022-11-20T04:09:02.775Z,88.20
2022-11-20T04:11:31.665Z,88.30
2022-11-20T04:14:00.685Z,88.40
2022-11-20T04:16:30.097Z,88.40
2022-11-20T04:19:00.366Z,88.20
2022-11-20T04:21:27.549Z,88.40
2022-11-20T04:23:55.141Z,88.40
2022-11-20T04:26:23.698Z,88.40
2022-11-20T04:28:52.255Z,88.40
2022-11-20T04:31:24.940Z,88.40
2022-11-20T04:33:52.153Z,88.40
2022-11-20T04:36:21.170Z,88.40
2022-11-20T04:38:56.556Z,88.40
2022-11-20T04:41:29.049Z,88.30
2022-11-20T04:44:05.606Z,88.70
2022-11-20T04:46:35.398Z,89.00
2022-11-20T04:49:02.119Z,88.90
2022-11-20T04:51:29.138Z,88.70
2022-11-20T04:53:56.037Z,88.80
2022-11-20T04:56:23.270Z,88.50
2022-11-20T04:58:50.217Z,88.40
2022-11-20T05:01:25.122Z,88.30
2022-11-20T05:03:52.549Z,88.20
2022-11-20T05:06:21.663Z,88.10
2022-11-20T05:08:48.695Z,88.10
2022-11-20T05:11:20.870Z,88.00
2022-11-20T05:13:48.147Z,87.80
2022-11-20T05:16:20.970Z,87.80
2022-11-20T05:18:48.120Z,87.80
2022-11-20T05:21:15.459Z,87.60
2022-11-20T05:23:43.030Z,87.70
2022-11-20T05:26:16.957Z,87.60
2022-11-20T05:28:43.870Z,87.60
2022-11-20T05:31:13.093Z,87.50
2022-11-20T05:33:44.033Z,87.50
2022-11-20T05:36:11.928Z,87.40
2022-11-20T05:38:39.115Z,87.30
2022-11-20T05:41:07.002Z,88.10
2022-11-20T05:43:35.754Z,88.20
2022-11-20T05:46:03.774Z,88.00
2022-11-20T05:48:30.996Z,88.10
2022-11-20T05:51:02.013Z,87.90
2022-11-20T05:53:28.729Z,87.80
2022-11-20T05:56:06.429Z,87.70
2022-11-20T05:58:33.710Z,87.60
2022-11-20T06:01:14.477Z,87.50
2022-11-20T06:03:43.383Z,87.60
2022-11-20T06:06:10.180Z,87.60
2022-11-20T06:08:36.863Z,87.60
2022-11-20T06:11:08.601Z,87.80
2022-11-20T06:13:40.579Z,87.60
2022-11-20T06:16:09.318Z,87.70
2022-11-20T06:18:36.025Z,87.70
2022-11-20T06:21:11.315Z,87.50
2022-11-20T06:23:38.651Z,87.50
2022-11-20T06:26:11.211Z,87.40
2022-11-20T06:28:38.499Z,87.50
2022-11-20T06:31:06.215Z,87.40
2022-11-20T06:33:33.214Z,87.40
2022-11-20T06:36:05.671Z,87.30
2022-11-20T06:38:35.742Z,87.40
2022-11-20T06:41:03.803Z,87.40
2022-11-20T06:43:30.965Z,87.30
2022-11-20T06:45:59.267Z,87.30
2022-11-20T06:48:28.301Z,87.30
2022-11-20T06:50:55.123Z,87.20
2022-11-20T06:53:23.181Z,87.20
2022-11-20T06:55:50.761Z,87.20
2022-11-20T06:58:18.311Z,87.00
2022-11-20T07:00:45.393Z,87.20
2022-11-20T07:03:13.632Z,87.20
2022-11-20T07:05:40.964Z,87.40
2022-11-20T07:08:08.431Z,87.40
2022-11-20T07:10:35.513Z,87.60
2022-11-20T07:13:02.302Z,87.50
2022-11-20T07:15:29.125Z,87.40
2022-11-20T07:17:55.774Z,87.50
2022-11-20T07:20:22.409Z,87.40
2022-11-20T07:22:55.762Z,87.60
2022-11-20T07:25:23.278Z,87.50
2022-11-20T07:27:49.917Z,87.40
2022-11-20T07:30:17.514Z,87.60
2022-11-20T07:32:47.715Z,87.40
2022-11-20T07:35:14.837Z,87.50
2022-11-20T07:37:41.476Z,87.50
2022-11-20T07:40:08.429Z,87.40
2022-11-20T07:42:35.088Z,87.50
2022-11-20T07:45:01.758Z,87.50
2022-11-20T07:47:28.409Z,87.50
2022-11-20T07:49:55.128Z,87.40
2022-11-20T07:52:21.742Z,87.30
2022-11-20T07:54:48.446Z,87.30
2022-11-20T07:57:15.081Z,87.30
2022-11-20T07:59:41.743Z,87.40
2022-11-20T08:02:11.737Z,87.20
2022-11-20T08:04:38.383Z,88.90
2022-11-20T08:07:05.107Z,89.60
2022-11-20T08:09:31.814Z,89.80
2022-11-20T08:12:17.030Z,89.80
2022-11-20T08:14:43.695Z,89.90
2022-11-20T08:17:10.883Z,89.50
2022-11-20T08:19:37.548Z,89.40
2022-11-20T08:22:04.170Z,89.20
2022-11-20T08:24:30.882Z,89.50
2022-11-20T08:27:00.544Z,89.20
2022-11-20T08:29:28.182Z,89.20
2022-11-20T08:31:54.917Z,89.30
2022-11-20T08:34:21.574Z,89.50
2022-11-20T08:36:48.237Z,89.50
2022-11-20T08:39:15.351Z,89.60
2022-11-20T08:41:41.997Z,89.30
2022-11-20T08:44:09.017Z,89.20
2022-11-20T08:46:41.828Z,89.40
2022-11-20T08:49:10.659Z,89.20
2022-11-20T08:51:38.121Z,89.20
2022-11-20T08:54:05.940Z,89.10
2022-11-20T08:56:33.308Z,89.10
2022-11-20T08:59:20.532Z,89.10
2022-11-20T09:01:49.251Z,89.10
2022-11-20T09:04:16.413Z,89.10
2022-11-20T09:06:43.135Z,89.10
2022-11-20T09:09:09.768Z,89.10
2022-11-20T09:11:37.071Z,89.10
2022-11-20T09:14:03.840Z,88.90
2022-11-20T09:16:30.554Z,88.90
2022-11-20T09:19:28.245Z,88.90
2022-11-20T09:21:43.820Z,88.90
2022-11-20T09:24:10.567Z,88.80
2022-11-20T09:26:37.206Z,88.90
2022-11-20T09:29:04.070Z,88.80
2022-11-20T09:31:31.024Z,88.80
2022-11-20T09:33:58.316Z,88.70
2022-11-20T09:36:24.948Z,88.70
2022-11-20T09:38:51.571Z,88.80
2022-11-20T09:41:41.152Z,89.00
2022-11-20T09:44:30.142Z,88.90
2022-11-20T09:47:21.287Z,88.80
2022-11-20T09:50:22.186Z,88.70
2022-11-20T09:52:51.787Z,88.70
2022-11-20T09:55:18.820Z,88.70
2022-11-20T09:57:48.714Z,88.70
2022-11-20T10:00:16.902Z,88.70
2022-11-20T10:03:03.631Z,88.70
2022-11-20T10:05:41.705Z,88.50
2022-11-20T10:08:21.140Z,88.90
2022-11-20T10:11:11.066Z,88.50
2022-11-20T10:13:44.806Z,88.50
2022-11-20T10:16:31.268Z,88.60
2022-11-20T10:19:01.141Z,88.60
2022-11-20T10:22:06.012Z,88.60
2022-11-20T10:24:58.323Z,88.50
2022-11-20T10:27:34.031Z,88.70
2022-11-20T10:30:10.620Z,88.60
2022-11-20T10:32:40.517Z,88.70
2022-11-20T10:35:28.961Z,88.70
2022-11-20T10:38:10.358Z,88.70
2022-11-20T10:40:41.618Z,88.70
2022-11-20T10:43:22.463Z,88.70
2022-11-20T10:46:01.428Z,88.70
2022-11-20T10:48:29.280Z,88.70
2022-11-20T10:51:33.169Z,88.70
2022-11-20T10:54:28.769Z,88.70
2022-11-20T10:57:07.151Z,88.80
2022-11-20T10:59:52.632Z,88.70
2022-11-20T11:02:24.689Z,88.70
2022-11-20T11:04:55.178Z,88.90
2022-11-20T11:07:34.831Z,89.00
2022-11-20T11:10:01.600Z,88.90
2022-11-20T11:12:29.864Z,88.80
2022-11-20T11:14:58.457Z,88.80
2022-11-20T11:17:32.206Z,88.70
2022-11-20T11:20:17.961Z,88.70
2022-11-20T11:22:49.511Z,88.80
2022-11-20T11:25:30.276Z,88.50
2022-11-20T11:28:02.592Z,88.80
2022-11-20T11:30:31.961Z,88.70
2022-11-20T11:33:11.537Z,88.80
2022-11-20T11:35:59.419Z,89.10
2022-11-20T11:38:40.868Z,88.90
2022-11-20T11:41:13.688Z,88.80
2022-11-20T11:43:58.800Z,88.70
2022-11-20T11:46:54.531Z,88.80
2022-11-20T11:49:21.910Z,88.80
2022-11-20T11:52:14.952Z,88.60
2022-11-20T11:54:58.395Z,88.80
2022-11-20T11:57:37.950Z,88.70
2022-11-20T12:00:19.823Z,88.70
2022-11-20T12:02:46.427Z,88.60
2022-11-20T12:05:19.266Z,88.70
2022-11-20T12:07:56.642Z,88.70
2022-11-20T12:10:38.981Z,88.70
2022-11-20T12:13:15.757Z,88.50
2022-11-20T12:15:47.146Z,88.50
2022-11-20T12:18:21.088Z,88.70
2022-11-20T12:21:32.019Z,88.70
2022-11-20T12:24:21.668Z,88.70
2022-11-20T12:27:06.356Z,88.70
2022-11-20T12:29:48.845Z,88.80
2022-11-20T12:32:24.393Z,88.90
2022-11-20T12:35:01.008Z,88.80
2022-11-20T12:37:50.921Z,88.90
2022-11-20T12:40:23.494Z,88.90
2022-11-20T12:43:31.460Z,88.90
2022-11-20T12:46:23.673Z,89.50
2022-11-20T12:49:13.699Z,89.20
2022-11-20T12:51:40.339Z,89.00
2022-11-20T12:54:25.483Z,89.10
2022-11-20T12:57:23.613Z,89.10
2022-11-20T13:00:10.752Z,89.00
2022-11-20T13:02:56.350Z,88.80
2022-11-20T13:05:35.218Z,88.90
2022-11-20T13:08:03.011Z,88.90
2022-11-20T13:10:50.619Z,88.90
2022-11-20T13:13:37.762Z,89.00
2022-11-20T13:16:26.121Z,89.00
2022-11-20T13:18:52.910Z,88.90
2022-11-20T13:21:23.503Z,89.00
2022-11-20T13:23:50.169Z,89.00
2022-11-20T13:26:24.887Z,89.00
2022-11-20T13:29:20.732Z,89.00
2022-11-20T13:31:48.939Z,89.00
2022-11-20T13:34:26.796Z,89.00
2022-11-20T13:36:56.066Z,89.10
2022-11-20T13:39:26.945Z,89.00
2022-11-20T13:41:59.660Z,88.90
2022-11-20T13:44:54.624Z,88.90
2022-11-20T13:47:27.529Z,89.20
2022-11-20T13:49:56.469Z,89.30
2022-11-20T13:52:58.795Z,89.10
2022-11-20T13:55:52.929Z,89.20
2022-11-20T13:58:48.629Z,89.30
2022-11-20T14:01:20.458Z,89.10
2022-11-20T14:04:05.730Z,89.30
2022-11-20T14:06:39.794Z,89.30
2022-11-20T14:09:06.666Z,89.70
2022-11-20T14:11:34.326Z,89.60
2022-11-20T14:14:15.993Z,89.40
2022-11-20T14:16:45.193Z,89.40
2022-11-20T14:19:25.964Z,89.40
2022-11-20T14:22:15.673Z,89.50
2022-11-20T14:24:42.535Z,89.50
2022-11-20T14:27:37.993Z,89.40
2022-11-20T14:30:05.640Z,89.40
2022-11-20T14:32:35.544Z,89.40
2022-11-20T14:35:10.823Z,89.40
2022-11-20T14:37:40.649Z,89.40
2022-11-20T14:40:29.664Z,89.30
2022-11-20T14:42:57.793Z,89.40
2022-11-20T14:45:25.960Z,89.50
2022-11-20T14:47:55.922Z,90.60
2022-11-20T14:50:27.026Z,91.10
2022-11-20T14:52:56.488Z,91.00
2022-11-20T14:55:39.421Z,90.30
2022-11-20T14:58:21.192Z,90.00
2022-11-20T15:00:55.409Z,89.80
2022-11-20T15:03:25.527Z,89.80
2022-11-20T15:05:54.558Z,89.70
2022-11-20T15:08:21.331Z,89.70
2022-11-20T15:10:51.338Z,89.70
2022-11-20T15:13:27.346Z,89.70
2022-11-20T15:15:56.529Z,89.80
2022-11-20T15:18:29.454Z,90.30
2022-11-20T15:20:58.626Z,90.20
2022-11-20T15:23:27.342Z,90.00
2022-11-20T15:25:54.031Z,90.00
2022-11-20T15:28:22.468Z,90.00
2022-11-20T15:30:50.587Z,90.00
2022-11-20T15:33:18.567Z,90.10
2022-11-20T15:35:45.509Z,89.80
2022-11-20T15:38:12.297Z,89.90
2022-11-20T15:40:39.013Z,90.00
2022-11-20T15:43:13.421Z,90.00
2022-11-20T15:45:48.672Z,90.00
2022-11-20T15:48:27.004Z,90.00
2022-11-20T15:51:02.270Z,90.00
2022-11-20T15:53:28.936Z,90.00
2022-11-20T15:55:55.665Z,90.00
2022-11-20T15:58:23.881Z,90.00
2022-11-20T16:00:51.039Z,90.20
2022-11-20T16:03:18.340Z,90.10
2022-11-20T16:05:46.143Z,90.70
2022-11-20T16:08:12.908Z,91.00
2022-11-20T16:10:40.331Z,91.10
2022-11-20T16:13:36.077Z,92.70
2022-11-20T16:16:06.515Z,91.80
2022-11-20T16:18:34.066Z,90.70
2022-11-20T16:21:00.886Z,90.20
2022-11-20T16:23:27.583Z,90.10
2022-11-20T16:25:54.290Z,90.10
2022-11-20T16:28:21.368Z,90.10
2022-11-20T16:30:48.045Z,90.10
2022-11-20T16:33:18.149Z,90.10
2022-11-20T16:35:45.185Z,90.00
2022-11-20T16:38:11.851Z,90.30
2022-11-20T16:40:38.593Z,91.80
2022-11-20T16:43:11.454Z,92.20
2022-11-20T16:45:42.598Z,92.00
2022-11-20T16:48:13.094Z,92.40
2022-11-20T16:50:47.264Z,93.00
2022-11-20T16:53:14.011Z,91.50
2022-11-20T16:55:40.650Z,90.70
2022-11-20T16:58:07.377Z,90.10
2022-11-20T17:00:37.685Z,89.80
2022-11-20T17:03:06.029Z,89.70
2022-11-20T17:05:33.523Z,89.60
2022-11-20T17:08:01.083Z,89.50
2022-11-20T17:10:27.795Z,89.60
2022-11-20T17:12:54.493Z,89.50
2022-11-20T17:15:21.225Z,89.50
2022-11-20T17:17:47.851Z,89.40
2022-11-20T17:20:14.497Z,89.50
2022-11-20T17:22:41.126Z,89.60
2022-11-20T17:25:08.071Z,89.50
2022-11-20T17:27:35.029Z,89.60
2022-11-20T17:30:01.689Z,89.80
2022-11-20T17:32:28.520Z,89.90
2022-11-20T17:34:56.146Z,89.70
2022-11-20T17:37:22.770Z,89.40
2022-11-20T17:39:49.464Z,89.50
2022-11-20T17:42:29.476Z,89.40
2022-11-20T17:44:58.735Z,89.50
2022-11-20T17:47:25.889Z,89.50
2022-11-20T17:49:53.484Z,89.40
2022-11-20T17:52:20.437Z,89.40
2022-11-20T17:54:47.148Z,89.50
2022-11-20T17:57:32.482Z,89.50
2022-11-20T17:59:59.149Z,89.60
2022-11-20T18:02:25.898Z,89.50
2022-11-20T18:04:52.688Z,89.40
2022-11-20T18:07:19.389Z,89.50
2022-11-20T18:09:46.075Z,89.70
2022-11-20T18:12:12.705Z,90.00
2022-11-20T18:14:39.391Z,89.90
2022-11-20T18:17:12.222Z,89.80
2022-11-20T18:19:55.274Z,90.80
2022-11-20T18:22:28.465Z,90.70
2022-11-20T18:24:55.115Z,90.20
2022-11-20T18:27:23.083Z,90.10
2022-11-20T18:29:51.945Z,89.80
2022-11-20T18:32:20.648Z,90.00
2022-11-20T18:34:47.356Z,90.00
2022-11-20T18:37:15.360Z,90.10
2022-11-20T18:39:42.758Z,90.20
2022-11-20T18:42:35.592Z,90.20
2022-11-20T18:45:04.396Z,90.30
2022-11-20T18:47:34.107Z,89.70
2022-11-20T18:50:01.888Z,89.90
2022-11-20T18:52:39.535Z,89.70
2022-11-20T18:55:06.908Z,89.60
2022-11-20T18:57:33.917Z,89.40
2022-11-20T19:00:06.438Z,89.40
2022-11-20T19:02:41.193Z,89.30
2022-11-20T19:05:09.637Z,89.40
2022-11-20T19:07:36.353Z,89.40
2022-11-20T19:10:04.128Z,89.40
2022-11-20T19:12:31.603Z,89.50
2022-11-20T19:14:58.313Z,89.50
2022-11-20T19:17:25.086Z,89.50
2022-11-20T19:19:52.215Z,89.50
2022-11-20T19:22:18.835Z,89.50
2022-11-20T19:24:45.911Z,89.60
2022-11-20T19:27:12.555Z,89.50
2022-11-20T19:29:39.665Z,89.50
2022-11-20T19:32:06.490Z,89.60
2022-11-20T19:34:33.302Z,89.60
2022-11-20T19:37:00.702Z,89.60
2022-11-20T19:39:27.568Z,89.60
2022-11-20T19:41:54.390Z,89.60
2022-11-20T19:44:21.102Z,89.60
2022-11-20T19:46:47.798Z,89.60
2022-11-20T19:49:14.940Z,89.70
2022-11-20T19:51:47.709Z,89.70
2022-11-20T19:54:15.262Z,89.80
2022-11-20T19:56:42.066Z,89.70
2022-11-20T19:59:08.735Z,89.60
2022-11-20T20:01:35.530Z,89.80
2022-11-20T20:04:03.529Z,90.10
2022-11-20T20:06:31.017Z,93.70
2022-11-20T20:09:04.319Z,92.90
2022-11-20T20:11:32.990Z,91.20
2022-11-20T20:14:04.239Z,91.70
2022-11-20T20:16:30.919Z,90.50
2022-11-20T20:18:59.227Z,90.80
2022-11-20T20:21:25.908Z,90.70
2022-11-20T20:23:55.514Z,90.40
2022-11-20T20:26:23.920Z,90.40
2022-11-20T20:28:51.257Z,90.40
2022-11-20T20:31:20.511Z,90.50
2022-11-20T20:33:48.028Z,90.40
2022-11-20T20:36:17.246Z,90.40
2022-11-20T20:38:45.877Z,90.70
2022-11-20T20:41:13.979Z,90.70
2022-11-20T20:43:59.455Z,90.70
2022-11-20T20:46:26.204Z,90.90
2022-11-20T20:48:54.851Z,90.90
2022-11-20T20:51:22.220Z,91.00
2022-11-20T20:53:49.212Z,90.80
2022-11-20T20:56:15.990Z,91.20
2022-11-20T20:58:42.673Z,91.40
2022-11-20T21:01:12.697Z,92.30
2022-11-20T21:03:39.635Z,91.30
2022-11-20T21:06:07.832Z,91.20
2022-11-20T21:08:37.979Z,91.00
2022-11-20T21:11:09.818Z,91.00
2022-11-20T21:13:37.572Z,90.80
2022-11-20T21:16:04.778Z,90.70
2022-11-20T21:18:32.197Z,90.60
2022-11-20T21:21:17.949Z,90.70
2022-11-20T21:23:47.886Z,90.50
2022-11-20T21:26:16.109Z,90.50
2022-11-20T21:28:42.848Z,90.50
2022-11-20T21:31:22.044Z,90.60
2022-11-20T21:33:50.571Z,90.60
2022-11-20T21:36:19.472Z,90.70
2022-11-20T21:38:46.798Z,90.50
2022-11-20T21:41:14.852Z,90.60
2022-11-20T21:43:45.578Z,90.70
2022-11-20T21:46:14.837Z,90.70
2022-11-20T21:48:43.032Z,90.80
2022-11-20T21:51:15.371Z,90.70
2022-11-20T21:53:42.606Z,90.70
2022-11-20T21:56:10.641Z,90.60
2022-11-20T21:58:38.718Z,90.70
2022-11-20T22:01:15.753Z,90.80
2022-11-20T22:03:42.880Z,90.80
2022-11-20T22:06:10.613Z,90.90
2022-11-20T22:08:38.615Z,90.90
2022-11-20T22:11:07.842Z,90.90
2022-11-20T22:13:53.445Z,90.70
2022-11-20T22:16:20.440Z,90.90
2022-11-20T22:18:52.248Z,90.80
2022-11-20T22:21:21.336Z,90.80
2022-11-20T22:23:48.694Z,90.80
2022-11-20T22:26:17.981Z,91.00
2022-11-20T22:28:48.676Z,90.90
2022-11-20T22:31:16.180Z,90.90
2022-11-20T22:33:43.049Z,91.10
2022-11-20T22:36:12.998Z,90.90
2022-11-20T22:38:40.461Z,90.90
2022-11-20T22:41:12.345Z,91.00
2022-11-20T22:43:40.475Z,91.10
2022-11-20T22:46:15.565Z,91.00
2022-11-20T22:49:04.000Z,91.00
2022-11-20T22:51:33.241Z,91.00
2022-11-20T22:54:00.278Z,91.10
2022-11-20T22:56:27.032Z,91.00
2022-11-20T22:58:54.705Z,91.10
2022-11-20T23:01:22.839Z,91.10
2022-11-20T23:03:51.493Z,91.10
2022-11-20T23:06:20.238Z,91.10
2022-11-20T23:08:47.254Z,91.10
2022-11-20T23:11:16.299Z,91.20
2022-11-20T23:13:45.044Z,91.20
2022-11-20T23:16:18.493Z,91.10
2022-11-20T23:18:45.522Z,91.20
2022-11-20T23:21:16.452Z,91.40
2022-11-20T23:23:47.846Z,91.20
2022-11-20T23:26:16.020Z,91.20
2022-11-20T23:28:43.601Z,91.20
2022-11-20T23:31:11.792Z,91.20
2022-11-20T23:33:40.279Z,91.30
2022-11-20T23:36:07.826Z,91.30
2022-11-20T23:38:35.030Z,91.30
2022-11-20T23:41:02.258Z,91.30
2022-11-20T23:43:29.267Z,91.30
2022-11-20T23:45:58.015Z,91.40
2022-11-20T23:48:26.848Z,91.40
2022-11-20T23:50:53.576Z,91.20
2022-11-20T23:53:21.939Z,91.30
2022-11-20T23:55:50.917Z,91.60
2022-11-20T23:58:18.330Z,91.60
